createdAt,value
2019-04-06T00:01:14.958Z,17.93
2019-04-06T00:03:45.591Z,19.00
2019-04-06T00:06:16.307Z,16.47
2019-04-06T00:08:47.046Z,17.70
2019-04-06T00:11:17.698Z,17.33
2019-04-06T00:13:48.313Z,17.97
2019-04-06T00:16:18.971Z,17.67
2019-04-06T00:18:49.696Z,18.37
2019-04-06T00:21:20.331Z,17.73
2019-04-06T00:23:50.982Z,18.13
2019-04-06T00:26:21.656Z,17.87
2019-04-06T00:28:52.342Z,17.90
2019-04-06T00:31:28.691Z,18.97
2019-04-06T00:33:59.412Z,18.30
2019-04-06T00:36:30.106Z,18.33
2019-04-06T00:39:00.981Z,17.97
2019-04-06T00:41:31.761Z,18.00
2019-04-06T00:44:02.499Z,18.70
2019-04-06T00:46:33.101Z,18.57
2019-04-06T00:49:03.903Z,19.27
2019-04-06T00:51:34.442Z,18.87
2019-04-06T00:54:05.190Z,18.90
2019-04-06T00:56:35.851Z,17.77
2019-04-06T00:59:06.554Z,18.23
2019-04-06T01:01:37.311Z,19.97
2019-04-06T01:04:07.936Z,18.93
2019-04-06T01:06:38.635Z,19.57
2019-04-06T01:09:11.542Z,19.80
2019-04-06T01:11:42.305Z,19.33
2019-04-06T01:14:13.021Z,19.27
2019-04-06T01:16:43.671Z,19.27
2019-04-06T01:19:14.366Z,19.60
2019-04-06T01:21:44.967Z,19.40
2019-04-06T01:24:15.598Z,18.67
2019-04-06T01:26:46.218Z,19.73
2019-04-06T01:29:16.912Z,19.60
2019-04-06T01:31:47.621Z,19.03
2019-04-06T01:34:18.266Z,18.30
2019-04-06T01:36:48.841Z,17.57
2019-04-06T01:39:19.391Z,18.70
2019-04-06T01:41:49.943Z,19.20
2019-04-06T01:44:20.441Z,19.70
2019-04-06T01:46:51.016Z,20.20
2019-04-06T01:49:21.611Z,19.63
2019-04-06T01:51:52.523Z,19.43
2019-04-06T01:54:22.906Z,19.70
2019-04-06T01:56:53.534Z,19.13
2019-04-06T01:59:23.953Z,19.60
2019-04-06T02:02:13.305Z,18.33
2019-04-06T02:04:43.953Z,19.93
2019-04-06T02:07:14.613Z,19.10
2019-04-06T02:09:45.101Z,19.83
2019-04-06T02:12:15.816Z,18.37
2019-04-06T02:14:46.492Z,18.93
2019-04-06T02:17:16.987Z,19.63
2019-04-06T02:19:47.932Z,19.87
2019-04-06T02:22:18.481Z,19.33
2019-04-06T02:24:48.981Z,20.27
2019-04-06T02:27:19.664Z,19.63
2019-04-06T02:30:09.037Z,20.00
2019-04-06T02:32:52.366Z,20.20
2019-04-06T02:35:41.677Z,19.67
2019-04-06T02:38:23.623Z,19.97
2019-04-06T02:41:01.933Z,20.47
2019-04-06T02:43:34.313Z,18.97
2019-04-06T02:46:05.066Z,19.87
2019-04-06T02:48:35.779Z,19.10
2019-04-06T02:51:06.488Z,19.20
2019-04-06T02:53:36.968Z,20.23
2019-04-06T02:56:07.649Z,19.60
2019-04-06T02:58:38.242Z,19.60
2019-04-06T03:01:08.800Z,19.37
2019-04-06T03:03:39.485Z,19.37
2019-04-06T03:06:10.395Z,19.83
2019-04-06T03:08:41.080Z,18.53
2019-04-06T03:11:11.670Z,20.00
2019-04-06T03:13:42.710Z,20.07
2019-04-06T03:16:13.328Z,20.43
2019-04-06T03:18:43.943Z,19.80
2019-04-06T03:21:14.515Z,19.70
2019-04-06T03:23:51.085Z,20.53
2019-04-06T03:26:17.414Z,20.00
2019-04-06T03:28:48.140Z,19.37
2019-04-06T03:31:23.325Z,19.07
2019-04-06T03:33:51.003Z,20.13
2019-04-06T03:36:21.776Z,18.73
2019-04-06T03:38:52.312Z,19.23
2019-04-06T03:41:23.085Z,20.93
2019-04-06T03:43:53.627Z,20.93
2019-04-06T03:46:24.371Z,21.07
2019-04-06T03:48:54.937Z,20.57
2019-04-06T03:51:25.431Z,21.33
2019-04-06T03:53:55.969Z,21.17
2019-04-06T03:56:26.727Z,21.10
2019-04-06T03:58:57.995Z,20.70
2019-04-06T04:01:28.734Z,20.67
2019-04-06T04:03:59.398Z,19.50
2019-04-06T04:06:29.919Z,21.37
2019-04-06T04:09:00.737Z,20.53
2019-04-06T04:11:31.282Z,20.83
2019-04-06T04:14:02.169Z,20.37
2019-04-06T04:16:32.716Z,21.10
2019-04-06T04:19:03.513Z,20.40
2019-04-06T04:21:34.246Z,20.30
2019-04-06T04:24:05.052Z,19.67
2019-04-06T04:26:35.628Z,21.07
2019-04-06T04:29:06.939Z,21.17
2019-04-06T04:31:37.780Z,19.00
2019-04-06T04:34:08.595Z,22.43
2019-04-06T04:36:39.414Z,20.10
2019-04-06T04:39:10.927Z,20.83
2019-04-06T04:41:41.726Z,20.03
2019-04-06T04:44:12.888Z,20.47
2019-04-06T04:46:43.879Z,19.60
2019-04-06T04:49:22.536Z,20.77
2019-04-06T04:51:58.901Z,21.63
2019-04-06T04:54:29.681Z,21.90
2019-04-06T04:57:00.560Z,21.13
2019-04-06T04:59:31.400Z,21.20
2019-04-06T05:02:02.267Z,20.37
2019-04-06T05:04:32.900Z,20.37
2019-04-06T05:07:15.635Z,19.70
2019-04-06T05:09:46.526Z,19.90
2019-04-06T05:12:17.324Z,20.53
2019-04-06T05:15:12.022Z,20.63
2019-04-06T05:17:42.739Z,19.77
2019-04-06T05:20:14.550Z,19.50
2019-04-06T05:22:45.390Z,20.37
2019-04-06T05:25:15.971Z,20.83
2019-04-06T05:27:52.726Z,20.40
2019-04-06T05:30:19.131Z,20.40
2019-04-06T05:32:49.873Z,20.10
2019-04-06T05:35:20.644Z,20.60
2019-04-06T05:37:51.476Z,20.50
2019-04-06T05:40:22.086Z,19.07
2019-04-06T05:42:52.826Z,19.70
2019-04-06T05:45:23.489Z,19.63
2019-04-06T05:47:54.052Z,20.10
2019-04-06T05:50:24.684Z,19.00
2019-04-06T05:52:55.222Z,18.67
2019-04-06T05:55:25.872Z,19.07
2019-04-06T05:58:03.459Z,19.60
2019-04-06T06:00:29.202Z,19.17
2019-04-06T06:03:00.347Z,18.90
2019-04-06T06:05:31.927Z,19.80
2019-04-06T06:08:02.557Z,19.70
2019-04-06T06:10:33.286Z,18.70
2019-04-06T06:13:04.271Z,19.20
2019-04-06T06:15:35.010Z,19.67
2019-04-06T06:18:06.794Z,19.67
2019-04-06T06:20:37.471Z,20.20
2019-04-06T06:23:08.156Z,19.33
2019-04-06T06:25:38.774Z,19.90
2019-04-06T06:28:15.073Z,19.50
2019-04-06T06:30:42.023Z,19.37
2019-04-06T06:33:13.042Z,20.07
2019-04-06T06:35:43.768Z,18.60
2019-04-06T06:38:14.494Z,20.20
2019-04-06T06:40:45.240Z,19.13
2019-04-06T06:43:15.964Z,19.80
2019-04-06T06:45:46.813Z,19.43
2019-04-06T06:48:17.609Z,17.63
2019-04-06T06:50:48.511Z,19.77
2019-04-06T06:53:19.681Z,20.13
2019-04-06T06:55:50.380Z,18.77
2019-04-06T06:58:25.749Z,20.17
2019-04-06T07:00:53.499Z,19.60
2019-04-06T07:03:24.241Z,20.30
2019-04-06T07:05:56.587Z,20.40
2019-04-06T07:08:27.094Z,19.57
2019-04-06T07:10:57.791Z,19.17
2019-04-06T07:13:28.644Z,19.47
2019-04-06T07:15:59.896Z,18.87
2019-04-06T07:18:30.795Z,18.50
2019-04-06T07:21:01.626Z,17.30
2019-04-06T07:23:32.418Z,19.40
2019-04-06T07:26:03.175Z,19.83
2019-04-06T07:28:38.153Z,18.93
2019-04-06T07:31:06.420Z,18.97
2019-04-06T07:33:37.510Z,19.17
2019-04-06T07:36:08.203Z,19.63
2019-04-06T07:38:38.807Z,19.20
2019-04-06T07:41:09.442Z,19.00
2019-04-06T07:43:40.214Z,19.93
2019-04-06T07:46:11.000Z,19.90
2019-04-06T07:48:41.590Z,19.03
2019-04-06T07:51:12.319Z,19.07
2019-04-06T07:53:42.976Z,18.97
2019-04-06T07:56:13.750Z,20.60
2019-04-06T07:58:49.384Z,19.47
2019-04-06T08:01:16.953Z,20.67
2019-04-06T08:03:48.028Z,20.67
2019-04-06T08:06:18.759Z,21.00
2019-04-06T08:08:49.450Z,21.50
2019-04-06T08:11:20.177Z,20.30
2019-04-06T08:13:50.791Z,20.63
2019-04-06T08:16:21.301Z,20.90
2019-04-06T08:18:51.987Z,19.77
2019-04-06T08:21:22.601Z,21.03
2019-04-06T08:23:53.216Z,20.27
2019-04-06T08:26:23.943Z,20.40
2019-04-06T08:29:01.507Z,21.80
2019-04-06T08:31:27.066Z,21.40
2019-04-06T08:33:57.850Z,20.90
2019-04-06T08:36:28.719Z,21.33
2019-04-06T08:38:59.870Z,21.30
2019-04-06T08:41:30.730Z,21.03
2019-04-06T08:44:01.636Z,21.47
2019-04-06T08:46:32.552Z,21.83
2019-04-06T08:49:03.372Z,20.73
2019-04-06T08:51:34.056Z,20.50
2019-04-06T08:54:04.840Z,21.07
2019-04-06T08:56:35.417Z,22.27
2019-04-06T08:59:12.004Z,22.50
2019-04-06T09:01:38.608Z,22.43
2019-04-06T09:04:09.306Z,21.70
2019-04-06T09:06:40.270Z,21.77
2019-04-06T09:09:11.082Z,22.67
2019-04-06T09:11:42.383Z,22.70
2019-04-06T09:14:13.226Z,22.40
2019-04-06T09:16:44.341Z,23.00
2019-04-06T09:19:15.147Z,22.37
2019-04-06T09:21:45.919Z,22.27
2019-04-06T09:24:16.687Z,22.47
2019-04-06T09:26:48.455Z,22.07
2019-04-06T09:29:23.619Z,21.97
2019-04-06T09:31:51.907Z,22.37
2019-04-06T09:34:22.489Z,22.43
2019-04-06T09:36:53.166Z,22.60
2019-04-06T09:39:23.833Z,22.77
2019-04-06T09:41:54.692Z,21.80
2019-04-06T09:44:44.591Z,23.27
2019-04-06T09:47:28.031Z,22.60
2019-04-06T09:50:16.766Z,23.13
2019-04-06T09:53:01.756Z,21.97
2019-04-06T09:55:48.446Z,23.03
2019-04-06T09:58:37.995Z,22.23
2019-04-06T10:01:20.881Z,23.23
2019-04-06T10:04:02.599Z,22.47
2019-04-06T10:06:52.175Z,22.70
2019-04-06T10:09:41.693Z,22.27
2019-04-06T10:12:31.092Z,22.70
2019-04-06T10:15:20.625Z,22.67
2019-04-06T10:18:10.341Z,23.67
2019-04-06T10:21:00.271Z,22.20
2019-04-06T10:23:49.604Z,23.47
2019-04-06T10:26:36.841Z,22.87
2019-04-06T10:29:26.436Z,22.67
2019-04-06T10:32:16.042Z,22.47
2019-04-06T10:35:01.720Z,22.57
2019-04-06T10:37:51.230Z,23.13
2019-04-06T10:40:40.796Z,22.83
2019-04-06T10:43:30.394Z,23.07
2019-04-06T10:46:19.981Z,22.80
2019-04-06T10:48:56.725Z,23.13
2019-04-06T10:51:46.231Z,22.50
2019-04-06T10:54:35.750Z,22.47
2019-04-06T10:57:15.466Z,22.83
2019-04-06T11:00:01.508Z,21.40
2019-04-06T11:02:48.331Z,22.17
2019-04-06T11:05:31.630Z,21.57
2019-04-06T11:08:21.179Z,21.77
2019-04-06T11:11:10.690Z,19.73
2019-04-06T11:14:00.227Z,20.17
2019-04-06T11:16:49.786Z,19.60
2019-04-06T11:19:39.261Z,20.30
2019-04-06T11:22:27.542Z,21.23
2019-04-06T11:25:17.347Z,19.90
2019-04-06T11:28:06.932Z,19.90
2019-04-06T11:30:47.958Z,20.77
2019-04-06T11:33:37.620Z,20.00
2019-04-06T11:36:27.450Z,18.70
2019-04-06T11:39:17.032Z,18.33
2019-04-06T11:41:55.825Z,19.27
2019-04-06T11:44:37.213Z,19.27
2019-04-06T11:47:26.833Z,19.10
2019-04-06T11:50:16.627Z,18.60
2019-04-06T11:53:03.330Z,19.07
2019-04-06T11:55:40.087Z,17.97
2019-04-06T11:58:29.768Z,18.17
2019-04-06T12:01:19.746Z,16.50
2019-04-06T12:04:09.251Z,18.53
2019-04-06T12:06:50.623Z,18.00
2019-04-06T12:09:40.050Z,18.47
2019-04-06T12:12:31.104Z,18.27
2019-04-06T12:15:12.512Z,17.77
2019-04-06T12:17:51.640Z,18.60
2019-04-06T12:20:31.056Z,19.17
2019-04-06T12:23:20.849Z,18.47
2019-04-06T12:26:10.549Z,19.33
2019-04-06T12:29:00.475Z,18.10
2019-04-06T12:31:41.864Z,19.20
2019-04-06T12:34:31.470Z,17.90
2019-04-06T12:37:20.890Z,18.57
2019-04-06T12:40:10.332Z,19.37
2019-04-06T12:42:59.830Z,18.57
2019-04-06T12:45:49.340Z,18.50
2019-04-06T12:48:39.282Z,18.93
2019-04-06T12:51:19.836Z,19.07
2019-04-06T12:54:09.305Z,18.73
2019-04-06T12:56:53.016Z,19.30
2019-04-06T12:59:35.237Z,18.47
2019-04-06T13:02:14.510Z,18.27
2019-04-06T13:05:04.105Z,19.07
2019-04-06T13:07:53.691Z,18.63
2019-04-06T13:10:43.082Z,19.43
2019-04-06T13:13:23.897Z,19.03
2019-04-06T13:16:13.311Z,19.30
2019-04-06T13:19:02.710Z,18.97
2019-04-06T13:21:52.233Z,19.20
2019-04-06T13:24:41.750Z,20.47
2019-04-06T13:27:31.034Z,18.67
2019-04-06T13:30:20.784Z,18.73
2019-04-06T13:33:02.734Z,19.37
2019-04-06T13:35:52.256Z,19.50
2019-04-06T13:38:41.601Z,19.23
2019-04-06T13:41:31.461Z,18.70
2019-04-06T13:44:21.069Z,19.33
2019-04-06T13:47:04.180Z,18.13
2019-04-06T13:49:45.640Z,19.17
2019-04-06T13:52:22.281Z,18.17
2019-04-06T13:55:03.259Z,18.73
2019-04-06T13:57:38.986Z,18.97
2019-04-06T14:00:18.002Z,17.83
2019-04-06T14:02:56.796Z,18.63
2019-04-06T14:05:39.595Z,18.80
2019-04-06T14:08:29.106Z,18.60
2019-04-06T14:11:19.233Z,19.53
2019-04-06T14:14:04.231Z,18.97
2019-04-06T14:16:46.700Z,18.87
2019-04-06T14:19:33.641Z,19.93
2019-04-06T14:22:23.330Z,19.30
2019-04-06T14:25:12.861Z,18.83
2019-04-06T14:28:02.457Z,18.10
2019-04-06T14:30:51.998Z,18.20
2019-04-06T14:33:33.048Z,18.07
2019-04-06T14:36:22.446Z,18.67
2019-04-06T14:39:07.966Z,15.90
2019-04-06T14:41:57.640Z,15.43
2019-04-06T14:44:41.276Z,15.47
2019-04-06T14:47:30.870Z,15.93
2019-04-06T14:50:20.282Z,16.70
2019-04-06T14:53:09.756Z,17.00
2019-04-06T14:55:59.176Z,18.47
2019-04-06T14:58:49.196Z,18.53
2019-04-06T15:01:45.258Z,19.43
2019-04-06T15:04:20.661Z,18.53
2019-04-06T15:07:08.584Z,20.07
2019-04-06T15:09:37.940Z,19.23
2019-04-06T15:12:27.805Z,20.30
2019-04-06T15:15:17.354Z,20.80
2019-04-06T15:17:54.898Z,20.03
2019-04-06T15:20:33.032Z,20.53
2019-04-06T15:23:22.573Z,21.73
2019-04-06T15:26:06.435Z,20.50
2019-04-06T15:28:56.222Z,21.87
2019-04-06T15:31:35.099Z,21.07
2019-04-06T15:34:18.484Z,20.93
2019-04-06T15:36:59.390Z,21.57
2019-04-06T15:39:49.105Z,21.07
2019-04-06T15:42:38.681Z,21.13
2019-04-06T15:45:28.253Z,21.30
2019-04-06T15:48:17.760Z,22.13
2019-04-06T15:51:07.431Z,23.63
2019-04-06T15:53:51.052Z,22.43
2019-04-06T15:56:38.315Z,23.30
2019-04-06T15:59:27.842Z,21.40
2019-04-06T16:02:17.347Z,19.43
2019-04-06T16:05:05.168Z,21.80
2019-04-06T16:07:54.716Z,20.90
2019-04-06T16:10:34.639Z,21.97
2019-04-06T16:13:24.007Z,21.63
2019-04-06T16:16:30.089Z,20.73
2019-04-06T16:19:19.852Z,21.07
2019-04-06T16:22:09.460Z,19.90
2019-04-06T16:24:46.160Z,19.27
2019-04-06T16:27:23.287Z,19.10
2019-04-06T16:30:13.096Z,19.20
2019-04-06T16:33:02.836Z,19.70
2019-04-06T16:35:52.253Z,19.40
2019-04-06T16:38:31.527Z,19.03
2019-04-06T16:41:21.333Z,18.83
2019-04-06T16:44:10.875Z,18.20
2019-04-06T16:46:51.545Z,17.70
2019-04-06T16:49:41.160Z,19.40
2019-04-06T16:52:30.439Z,19.20
2019-04-06T16:55:14.179Z,18.43
2019-04-06T16:58:01.074Z,19.43
2019-04-06T17:00:39.829Z,18.00
2019-04-06T17:03:16.782Z,18.93
2019-04-06T17:06:06.520Z,19.10
2019-04-06T17:08:56.584Z,19.60
2019-04-06T17:11:49.757Z,19.33
2019-04-06T17:14:39.397Z,19.67
2019-04-06T17:17:29.461Z,19.47
2019-04-06T17:20:19.061Z,20.97
2019-04-06T17:23:09.675Z,20.57
2019-04-06T17:25:54.634Z,20.80
2019-04-06T17:28:47.971Z,20.13
2019-04-06T17:31:37.768Z,20.47
2019-04-06T17:34:31.422Z,20.63
2019-04-06T17:37:16.997Z,21.07
2019-04-06T17:40:07.719Z,21.30
2019-04-06T17:42:45.171Z,22.70
2019-04-06T17:45:26.607Z,22.90
2019-04-06T17:48:08.346Z,24.23
2019-04-06T17:50:57.963Z,25.50
2019-04-06T17:53:47.335Z,25.57
2019-04-06T17:56:36.813Z,28.10
2019-04-06T17:59:27.536Z,28.20
2019-04-06T18:02:17.837Z,28.17
2019-04-06T18:05:07.483Z,30.33
2019-04-06T18:07:57.869Z,31.30
2019-04-06T18:10:40.680Z,26.13
2019-04-06T18:13:30.242Z,19.23
2019-04-06T18:16:02.112Z,13.77
2019-04-06T18:18:34.031Z,14.90
2019-04-06T18:21:05.049Z,12.83
2019-04-06T18:23:36.866Z,11.50
2019-04-06T18:26:07.946Z,12.00
2019-04-06T18:28:38.887Z,10.77
2019-04-06T18:31:20.470Z,8.77
2019-04-06T18:33:58.016Z,7.07
2019-04-06T18:36:40.478Z,7.03
2019-04-06T18:39:16.371Z,7.60
2019-04-06T18:41:47.075Z,7.07
2019-04-06T18:44:21.878Z,7.47
2019-04-06T18:46:54.079Z,7.00
2019-04-06T18:49:27.597Z,6.37
2019-04-06T18:52:01.945Z,6.20
2019-04-06T18:54:32.792Z,4.80
2019-04-06T18:57:06.492Z,5.17
2019-04-06T18:59:38.076Z,5.07
2019-04-06T19:02:09.750Z,5.50
2019-04-06T19:04:40.670Z,5.37
2019-04-06T19:07:13.520Z,5.20
2019-04-06T19:09:55.892Z,5.47
2019-04-06T19:12:32.742Z,4.90
2019-04-06T19:15:08.216Z,5.10
2019-04-06T19:17:40.369Z,5.33
2019-04-06T19:20:14.720Z,5.10
2019-04-06T19:22:47.962Z,6.03
2019-04-06T19:25:22.405Z,5.80
2019-04-06T19:27:55.176Z,5.87
2019-04-06T19:30:27.514Z,6.20
2019-04-06T19:33:05.689Z,5.80
2019-04-06T19:35:40.370Z,6.07
2019-04-06T19:38:13.317Z,6.50
2019-04-06T19:40:49.737Z,6.67
2019-04-06T19:43:21.994Z,6.20
2019-04-06T19:45:52.954Z,6.40
2019-04-06T19:48:23.787Z,6.37
2019-04-06T19:50:59.006Z,6.77
2019-04-06T19:53:30.060Z,6.07
2019-04-06T19:56:05.613Z,7.17
2019-04-06T19:58:38.395Z,6.23
2019-04-06T20:01:09.242Z,6.30
2019-04-06T20:03:40.068Z,6.53
2019-04-06T20:06:15.560Z,7.47
2019-04-06T20:08:48.257Z,6.53
2019-04-06T20:11:19.308Z,6.70
2019-04-06T20:13:51.355Z,6.20
2019-04-06T20:16:22.832Z,6.00
2019-04-06T20:18:57.130Z,7.07
2019-04-06T20:21:27.968Z,6.93
2019-04-06T20:24:00.544Z,7.17
2019-04-06T20:26:32.490Z,6.97
2019-04-06T20:29:06.441Z,7.53
2019-04-06T20:31:38.482Z,6.30
2019-04-06T20:34:10.769Z,7.10
2019-04-06T20:36:41.959Z,6.87
2019-04-06T20:39:13.168Z,7.37
2019-04-06T20:41:43.986Z,6.77
2019-04-06T20:44:14.595Z,6.77
2019-04-06T20:46:47.282Z,7.63
2019-04-06T20:49:18.486Z,8.60
2019-04-06T20:51:49.623Z,8.77
2019-04-06T20:54:20.808Z,8.57
2019-04-06T20:56:56.397Z,8.00
2019-04-06T20:59:24.124Z,8.30
2019-04-06T21:01:54.572Z,7.77
2019-04-06T21:04:25.168Z,7.83
2019-04-06T21:06:55.922Z,7.53
2019-04-06T21:09:27.069Z,7.47
2019-04-06T21:11:58.089Z,6.97
2019-04-06T21:14:29.499Z,7.90
2019-04-06T21:17:00.674Z,7.90
2019-04-06T21:19:31.474Z,8.93
2019-04-06T21:22:03.025Z,8.77
2019-04-06T21:24:33.791Z,8.80
2019-04-06T21:27:05.277Z,9.23
2019-04-06T21:29:36.446Z,8.60
2019-04-06T21:32:07.391Z,8.17
2019-04-06T21:34:38.300Z,9.43
2019-04-06T21:37:08.865Z,10.13
2019-04-06T21:39:39.405Z,9.47
2019-04-06T21:42:10.638Z,10.00
2019-04-06T21:44:41.466Z,9.80
2019-04-06T21:47:12.168Z,9.90
2019-04-06T21:49:43.563Z,10.00
2019-04-06T21:52:14.445Z,10.50
2019-04-06T21:54:45.499Z,10.40
2019-04-06T21:57:16.330Z,10.07
2019-04-06T21:59:47.355Z,10.70
2019-04-06T22:02:18.121Z,9.80
2019-04-06T22:04:49.672Z,9.63
2019-04-06T22:07:20.323Z,10.20
2019-04-06T22:09:51.364Z,10.07
2019-04-06T22:12:22.663Z,10.27
2019-04-06T22:14:53.229Z,11.23
2019-04-06T22:17:24.418Z,10.73
2019-04-06T22:19:55.139Z,9.93
2019-04-06T22:22:25.934Z,9.90
2019-04-06T22:24:56.485Z,10.13
2019-04-06T22:27:27.789Z,10.10
2019-04-06T22:29:59.110Z,9.53
2019-04-06T22:32:30.126Z,10.20
2019-04-06T22:35:01.105Z,10.00
2019-04-06T22:37:32.677Z,10.17
2019-04-06T22:40:03.787Z,10.37
2019-04-06T22:42:34.635Z,10.20
2019-04-06T22:45:08.465Z,10.70
2019-04-06T22:47:39.855Z,10.00
2019-04-06T22:50:11.877Z,10.83
2019-04-06T22:52:43.490Z,11.27
2019-04-06T22:55:14.500Z,11.03
2019-04-06T22:57:45.502Z,10.57
2019-04-06T23:00:27.351Z,11.40
2019-04-06T23:03:06.971Z,10.63
2019-04-06T23:05:42.587Z,10.70
2019-04-06T23:08:13.425Z,9.77
2019-04-06T23:10:44.144Z,10.47
2019-04-06T23:13:15.027Z,11.00
2019-04-06T23:15:47.816Z,10.27
2019-04-06T23:18:18.252Z,10.30
2019-04-06T23:20:49.551Z,10.60
2019-04-06T23:23:20.866Z,10.67
2019-04-06T23:25:51.863Z,9.70
2019-04-06T23:28:22.646Z,9.87
2019-04-06T23:30:53.557Z,9.77
2019-04-06T23:33:24.430Z,9.53
2019-04-06T23:35:55.038Z,10.27
2019-04-06T23:38:26.190Z,10.10
2019-04-06T23:40:56.876Z,9.33
2019-04-06T23:43:27.697Z,9.40
2019-04-06T23:45:58.386Z,10.17
2019-04-06T23:48:28.932Z,10.07
2019-04-06T23:50:59.844Z,9.40
2019-04-06T23:53:30.535Z,10.33
2019-04-06T23:56:02.188Z,9.13
2019-04-06T23:58:33.273Z,9.87
